Time;durP1;ratioP1;P1;durP2;ratioP2;P2;SDS_P1;SDS_P2;PMS_P1;PMS_P2;Temp;Humidity;BMP_temperature;BMP_pressure;BME280_temperature;BME280_humidity;BME280_pressure;Samples;Min_cycle;Max_cycle;Signal;HPM_P1;HPM_P2
2024/03/13 00:00:55;;;;;;;11.35;8.30;;;10.00;92.20;;;;;;5092032;28;20008;-34
2024/03/13 00:03:21;;;;;;;12.52;8.75;;;10.00;92.30;;;;;;5091414;28;20442;-36
2024/03/13 00:05:48;;;;;;;11.63;8.35;;;10.00;92.30;;;;;;5091568;28;20026;-36
2024/03/13 00:08:13;;;;;;;11.18;8.27;;;10.00;92.30;;;;;;5091579;28;20028;-35
2024/03/13 00:10:39;;;;;;;13.05;8.75;;;10.00;92.30;;;;;;5092158;28;20028;-39
2024/03/13 00:13:05;;;;;;;11.68;8.68;;;10.00;92.40;;;;;;5090018;28;20024;-37
2024/03/13 00:15:33;;;;;;;11.05;8.77;;;9.90;92.40;;;;;;5091458;28;20035;-38
2024/03/13 00:18:01;;;;;;;12.05;8.80;;;10.00;92.40;;;;;;5091632;28;20024;-36
2024/03/13 00:20:30;;;;;;;13.02;9.07;;;9.90;92.40;;;;;;5091322;28;20019;-35
2024/03/13 00:22:59;;;;;;;11.23;8.68;;;9.90;92.50;;;;;;5091659;28;20462;-37
2024/03/13 00:25:25;;;;;;;11.90;8.65;;;9.90;92.50;;;;;;5091724;28;20487;-41
2024/03/13 00:27:51;;;;;;;12.27;9.02;;;10.00;92.50;;;;;;5091746;28;20020;-38
2024/03/13 00:30:17;;;;;;;11.77;8.93;;;9.90;92.50;;;;;;5091425;28;20553;-36
2024/03/13 00:32:42;;;;;;;12.48;8.82;;;10.00;92.60;;;;;;5091914;28;20043;-38
2024/03/13 00:35:08;;;;;;;11.00;8.38;;;9.90;92.60;;;;;;5091322;28;20126;-35
2024/03/13 00:37:34;;;;;;;11.95;9.10;;;10.00;92.60;;;;;;5091567;28;20093;-35
2024/03/13 00:40:01;;;;;;;10.45;8.65;;;10.00;92.60;;;;;;5091168;28;20035;-42
2024/03/13 00:42:26;;;;;;;12.32;8.75;;;10.00;92.60;;;;;;5091392;28;20383;-39
2024/03/13 00:44:53;;;;;;;12.30;8.73;;;10.00;92.70;;;;;;5091261;28;20020;-39
2024/03/13 00:47:19;;;;;;;12.23;9.13;;;10.00;92.60;;;;;;5091416;28;20366;-44
2024/03/13 00:49:45;;;;;;;11.10;8.85;;;10.00;92.70;;;;;;5091410;28;20028;-37
2024/03/13 00:52:12;;;;;;;11.32;8.98;;;10.00;92.70;;;;;;5091341;28;20103;-37
2024/03/13 00:54:44;;;;;;;11.18;8.70;;;10.00;92.70;;;;;;5091167;28;20111;-36
2024/03/13 00:57:11;;;;;;;11.23;8.77;;;10.00;92.70;;;;;;5091471;28;20024;-37
2024/03/13 00:59:36;;;;;;;11.88;8.82;;;10.00;92.70;;;;;;5090990;28;20039;-36
2024/03/13 01:02:02;;;;;;;10.82;8.32;;;10.00;92.80;;;;;;5090902;28;20032;-36
2024/03/13 01:04:29;;;;;;;11.40;8.68;;;10.00;92.80;;;;;;5092681;28;20131;-36
2024/03/13 01:06:55;;;;;;;10.93;8.38;;;10.00;92.80;;;;;;5094904;28;20031;-36
2024/03/13 01:09:23;;;;;;;10.50;8.43;;;10.00;92.80;;;;;;5094992;28;20036;-36
2024/03/13 01:11:52;;;;;;;12.40;8.48;;;10.00;92.80;;;;;;5094585;28;20024;-35
2024/03/13 01:14:20;;;;;;;10.55;8.13;;;10.00;92.80;;;;;;5094744;28;20028;-36
2024/03/13 01:16:52;;;;;;;9.88;8.27;;;10.00;92.80;;;;;;5095057;28;20047;-37
2024/03/13 01:19:21;;;;;;;10.90;8.20;;;10.00;92.80;;;;;;5094911;28;20059;-36
2024/03/13 01:22:03;;;;;;;10.23;8.15;;;10.00;92.80;;;;;;5094729;28;20335;-36
2024/03/13 01:24:28;;;;;;;10.50;8.15;;;10.00;92.90;;;;;;5094593;28;20036;-37
2024/03/13 01:26:54;;;;;;;9.95;7.72;;;10.00;92.90;;;;;;5094717;28;20458;-34
2024/03/13 01:29:20;;;;;;;10.00;7.93;;;10.00;92.90;;;;;;5094389;28;20032;-38
2024/03/13 01:31:46;;;;;;;9.98;8.25;;;10.00;92.90;;;;;;5094363;28;20035;-36
2024/03/13 01:34:12;;;;;;;11.20;8.77;;;10.00;92.90;;;;;;5092918;28;20035;-38
2024/03/13 01:39:24;;;;;;;9.82;8.13;;;10.10;92.90;;;;;;5094121;28;20047;-36
2024/03/13 01:55:40;;;;;;;8.70;7.20;;;10.10;93.00;;;;;;5094269;28;20054;-39
2024/03/13 02:03:17;;;;;;;8.73;7.00;;;10.10;93.00;;;;;;5093480;28;20444;-36
2024/03/13 02:05:44;;;;;;;9.10;7.28;;;10.10;93.10;;;;;;5093932;28;20099;-42
2024/03/13 02:08:14;;;;;;;9.35;7.60;;;10.10;93.10;;;;;;5092354;28;20070;-36
2024/03/13 02:10:40;;;;;;;9.75;7.53;;;10.10;93.10;;;;;;5094017;28;20043;-36
2024/03/13 02:13:10;;;;;;;10.20;8.35;;;10.10;93.10;;;;;;5093741;28;20047;-36
2024/03/13 02:15:36;;;;;;;10.10;7.90;;;10.10;93.10;;;;;;5092615;28;20035;-36
2024/03/13 02:18:27;;;;;;;11.13;8.38;;;10.10;93.10;;;;;;5093580;28;20056;-37
2024/03/13 02:20:52;;;;;;;9.07;7.43;;;10.10;93.10;;;;;;5093550;28;20077;-37
2024/03/13 02:23:23;;;;;;;9.60;7.40;;;10.20;93.20;;;;;;5093466;28;20024;-36
2024/03/13 02:25:52;;;;;;;10.07;8.18;;;10.10;93.10;;;;;;5093646;28;20028;-34
2024/03/13 02:28:32;;;;;;;10.48;8.07;;;10.10;93.20;;;;;;5092079;28;20104;-36
2024/03/13 02:30:59;;;;;;;10.88;8.88;;;10.20;93.20;;;;;;5093556;28;20436;-36
2024/03/13 02:33:25;;;;;;;11.50;8.35;;;10.20;93.20;;;;;;5093503;28;20555;-36
2024/03/13 02:35:50;;;;;;;9.95;7.97;;;10.20;93.20;;;;;;5093214;28;20083;-37
2024/03/13 02:38:16;;;;;;;10.32;7.78;;;10.20;93.20;;;;;;5093221;28;20031;-36
2024/03/13 02:40:42;;;;;;;12.43;8.38;;;10.20;93.20;;;;;;5093188;28;20024;-42
2024/03/13 02:43:07;;;;;;;12.70;9.07;;;10.20;93.20;;;;;;5093019;28;20119;-37
2024/03/13 02:45:33;;;;;;;12.65;9.07;;;10.20;93.20;;;;;;5093194;28;20361;-39
2024/03/13 02:47:59;;;;;;;12.60;8.93;;;10.20;93.30;;;;;;5093065;28;20396;-37
2024/03/13 02:50:25;;;;;;;12.45;8.35;;;10.20;93.30;;;;;;5093129;28;20046;-35
2024/03/13 02:52:50;;;;;;;14.55;9.25;;;10.20;93.30;;;;;;5091597;28;20468;-36
2024/03/13 02:55:16;;;;;;;13.55;8.75;;;10.20;93.30;;;;;;5093150;28;20099;-36
2024/03/13 02:57:44;;;;;;;17.88;9.10;;;10.30;93.30;;;;;;5092710;28;20506;-37
2024/03/13 03:00:10;;;;;;;12.10;8.68;;;10.30;93.30;;;;;;5092881;28;20365;-37
2024/03/13 03:02:36;;;;;;;14.07;8.60;;;10.30;93.40;;;;;;5091160;28;20484;-45
2024/03/13 03:05:03;;;;;;;13.88;9.20;;;10.30;93.30;;;;;;5091460;28;20032;-36
2024/03/13 03:07:32;;;;;;;17.13;8.90;;;10.30;93.40;;;;;;5092443;28;20026;-36
2024/03/13 03:09:58;;;;;;;15.85;8.30;;;10.30;93.40;;;;;;5092731;28;20333;-36
2024/03/13 03:12:23;;;;;;;17.77;9.07;;;10.30;93.50;;;;;;5092522;28;20035;-38
2024/03/13 03:14:49;;;;;;;17.27;9.02;;;10.30;93.40;;;;;;5092325;28;20039;-36
2024/03/13 03:17:16;;;;;;;18.02;8.63;;;10.30;93.40;;;;;;5091215;28;20017;-36
2024/03/13 03:19:42;;;;;;;15.25;9.05;;;10.30;93.40;;;;;;5092113;28;20039;-36
2024/03/13 03:22:10;;;;;;;17.90;8.57;;;10.40;93.40;;;;;;5092358;28;20017;-36
2024/03/13 03:24:36;;;;;;;14.75;8.68;;;10.30;93.40;;;;;;5092482;28;20480;-36
2024/03/13 03:27:01;;;;;;;15.05;8.02;;;10.30;93.40;;;;;;5092234;28;20026;-38
2024/03/13 03:29:27;;;;;;;21.75;8.90;;;10.40;93.50;;;;;;5092217;28;20407;-37
2024/03/13 03:31:54;;;;;;;20.42;9.80;;;10.40;93.50;;;;;;5092065;28;20082;-37
2024/03/13 03:34:20;;;;;;;17.88;8.93;;;10.40;93.50;;;;;;5092022;28;20458;-36
2024/03/13 03:36:46;;;;;;;22.08;8.98;;;10.40;93.50;;;;;;5092339;28;20115;-35
2024/03/13 03:39:14;;;;;;;20.63;9.43;;;10.40;93.50;;;;;;5092055;28;20566;-36
2024/03/13 03:41:43;;;;;;;18.23;9.88;;;10.40;93.50;;;;;;5074085;28;20027;-34
2024/03/13 03:44:11;;;;;;;19.75;9.32;;;10.40;93.50;;;;;;5091915;28;20024;-36
2024/03/13 03:46:40;;;;;;;17.83;10.55;;;10.40;93.50;;;;;;5092339;28;20409;-34
2024/03/13 03:49:06;;;;;;;18.90;9.70;;;10.40;93.50;;;;;;5092318;28;20028;-37
2024/03/13 03:51:32;;;;;;;15.65;8.77;;;10.40;93.50;;;;;;5092497;28;20495;-40
2024/03/13 03:53:59;;;;;;;17.75;9.75;;;10.50;93.50;;;;;;5090785;28;20035;-35
2024/03/13 03:56:27;;;;;;;16.02;9.90;;;10.50;93.60;;;;;;5092134;28;20032;-38
2024/03/13 03:58:55;;;;;;;18.05;9.65;;;10.50;93.60;;;;;;5091040;28;20036;-36
2024/03/13 04:01:21;;;;;;;15.50;9.55;;;10.50;93.60;;;;;;5090337;28;20032;-35
2024/03/13 04:03:49;;;;;;;17.25;10.13;;;10.50;93.50;;;;;;5089244;28;20028;-35
2024/03/13 04:06:17;;;;;;;17.30;9.95;;;10.50;93.60;;;;;;5090417;28;20020;-34
2024/03/13 04:08:46;;;;;;;16.15;9.18;;;10.50;93.60;;;;;;5090291;28;20053;-36
2024/03/13 04:11:12;;;;;;;13.60;9.05;;;10.50;93.60;;;;;;5090693;28;20395;-36
2024/03/13 04:13:41;;;;;;;14.55;9.48;;;10.50;93.60;;;;;;5090327;28;20020;-35
2024/03/13 04:16:10;;;;;;;14.00;8.70;;;10.50;93.60;;;;;;5090873;28;20032;-36
2024/03/13 04:18:37;;;;;;;13.50;8.77;;;10.60;93.60;;;;;;5091320;28;20039;-35
2024/03/13 04:21:03;;;;;;;12.57;8.73;;;10.60;93.60;;;;;;5091307;28;20085;-36
2024/03/13 04:23:31;;;;;;;13.40;8.85;;;10.60;93.60;;;;;;5091428;28;20089;-36
2024/03/13 04:26:03;;;;;;;12.55;8.93;;;10.50;93.90;;;;;;5091383;28;20028;-36
2024/03/13 04:28:29;;;;;;;12.07;8.75;;;10.60;93.60;;;;;;5091313;28;20064;-34
2024/03/13 04:30:54;;;;;;;10.70;8.15;;;10.60;93.60;;;;;;5091700;28;20055;-35
2024/03/13 04:33:20;;;;;;;11.55;8.23;;;10.60;93.60;;;;;;5091255;28;20547;-35
2024/03/13 04:35:46;;;;;;;11.10;8.05;;;10.60;93.60;;;;;;5091262;28;20131;-34
2024/03/13 04:38:18;;;;;;;11.18;7.78;;;10.60;93.60;;;;;;5091184;28;20032;-36
2024/03/13 04:40:44;;;;;;;11.63;8.55;;;10.60;93.70;;;;;;5095235;28;20097;-36
2024/03/13 04:43:10;;;;;;;11.40;8.93;;;10.60;93.70;;;;;;5095508;28;20106;-51
2024/03/13 04:45:36;;;;;;;12.95;8.77;;;10.70;93.70;;;;;;5095344;28;20030;-36
2024/03/13 04:48:02;;;;;;;14.60;9.07;;;10.60;93.70;;;;;;5095244;28;20028;-36
2024/03/13 04:50:30;;;;;;;13.40;8.90;;;10.70;93.70;;;;;;5095504;28;20141;-36
2024/03/13 04:52:56;;;;;;;13.55;8.93;;;10.70;93.70;;;;;;5095644;28;20032;-35
2024/03/13 04:55:21;;;;;;;13.07;9.70;;;10.70;93.70;;;;;;5095416;28;20020;-38
2024/03/13 04:57:47;;;;;;;13.20;10.20;;;10.70;93.70;;;;;;5094986;28;20028;-35
2024/03/13 05:00:14;;;;;;;11.77;8.65;;;10.70;93.70;;;;;;5095179;28;20024;-39
2024/03/13 05:02:40;;;;;;;13.35;9.68;;;10.70;93.70;;;;;;5093508;28;20032;-35
2024/03/13 05:05:09;;;;;;;13.52;9.20;;;10.70;93.70;;;;;;5095333;28;20020;-36
2024/03/13 05:07:35;;;;;;;13.35;9.70;;;10.80;93.70;;;;;;5093774;28;20106;-35
2024/03/13 05:10:01;;;;;;;13.45;9.45;;;10.70;93.70;;;;;;5095029;28;20048;-36
2024/03/13 05:12:32;;;;;;;14.68;10.00;;;10.80;93.70;;;;;;5094736;28;20459;-36
2024/03/13 05:14:58;;;;;;;14.80;10.13;;;10.80;93.70;;;;;;5095024;28;20031;-36
2024/03/13 05:17:24;;;;;;;14.15;9.52;;;10.80;93.70;;;;;;5094820;28;20425;-37
2024/03/13 05:19:49;;;;;;;13.45;9.45;;;10.80;93.70;;;;;;5094714;28;20028;-35
2024/03/13 05:22:15;;;;;;;15.80;10.60;;;10.80;93.70;;;;;;5094632;28;20028;-35
2024/03/13 05:24:41;;;;;;;13.52;9.88;;;10.80;93.70;;;;;;5094892;28;20073;-37
2024/03/13 05:27:07;;;;;;;15.10;10.00;;;10.80;93.70;;;;;;5094792;28;20028;-36
2024/03/13 05:29:33;;;;;;;14.88;10.10;;;10.80;93.80;;;;;;5094811;28;20050;-45
2024/03/13 05:32:07;;;;;;;14.00;9.65;;;10.80;93.80;;;;;;5094378;28;20086;-37
2024/03/13 05:34:32;;;;;;;13.77;9.90;;;10.90;93.90;;;;;;5094455;28;20051;-36
2024/03/13 05:37:00;;;;;;;13.02;9.50;;;10.90;93.90;;;;;;5094180;28;20397;-35
2024/03/13 05:39:25;;;;;;;14.52;9.70;;;10.80;93.90;;;;;;5093045;28;20028;-37
2024/03/13 05:41:51;;;;;;;12.70;8.90;;;10.90;93.90;;;;;;5094191;28;20503;-36
2024/03/13 05:44:17;;;;;;;14.13;9.20;;;10.90;93.90;;;;;;5094460;28;20032;-36
2024/03/13 05:46:43;;;;;;;14.80;9.27;;;10.90;93.90;;;;;;5094191;28;20031;-38
2024/03/13 05:49:11;;;;;;;14.90;9.05;;;10.90;93.90;;;;;;5094087;28;20032;-36
2024/03/13 05:51:36;;;;;;;12.05;8.38;;;10.90;94.00;;;;;;5093633;28;20031;-35
2024/03/13 05:54:02;;;;;;;13.20;8.63;;;10.90;94.00;;;;;;5094118;28;20032;-36
2024/03/13 05:56:28;;;;;;;11.07;7.88;;;10.90;94.00;;;;;;5075739;28;20063;-38
2024/03/13 05:58:54;;;;;;;13.38;8.38;;;10.90;94.00;;;;;;5094395;28;20024;-37
2024/03/13 06:01:26;;;;;;;11.18;7.97;;;10.90;94.10;;;;;;5093966;28;20032;-36
2024/03/13 06:03:53;;;;;;;12.68;7.57;;;10.90;94.30;;;;;;5093871;28;20024;-36
2024/03/13 06:06:20;;;;;;;12.43;8.10;;;11.00;94.20;;;;;;5093952;28;20016;-37
2024/03/13 06:08:46;;;;;;;13.13;7.57;;;11.00;94.20;;;;;;5092752;28;20210;-35
2024/03/13 06:11:12;;;;;;;14.57;7.70;;;11.00;94.20;;;;;;5093860;28;20119;-36
2024/03/13 06:13:38;;;;;;;11.18;7.13;;;11.00;94.30;;;;;;5093646;28;20050;-36
2024/03/13 06:16:06;;;;;;;11.00;6.82;;;10.90;94.30;;;;;;5093749;28;20024;-40
2024/03/13 06:18:33;;;;;;;11.05;7.70;;;10.90;94.30;;;;;;5093660;28;20119;-41
2024/03/13 06:20:59;;;;;;;10.10;6.30;;;10.90;94.30;;;;;;5093903;28;20507;-37
2024/03/13 06:23:27;;;;;;;11.30;7.20;;;10.90;94.30;;;;;;5093418;28;20024;-37
2024/03/13 06:25:54;;;;;;;9.93;6.95;;;10.90;94.40;;;;;;5093449;28;20028;-37
2024/03/13 06:31:04;;;;;;;10.77;6.50;;;10.90;94.50;;;;;;5093080;28;20450;-36
2024/03/13 06:33:31;;;;;;;8.38;5.70;;;11.00;94.50;;;;;;5093255;28;20031;-36
2024/03/13 06:35:56;;;;;;;8.40;6.07;;;11.00;94.50;;;;;;5093105;28;20115;-33
2024/03/13 06:38:22;;;;;;;8.05;6.18;;;11.00;94.50;;;;;;5093386;28;20120;-42
2024/03/13 06:40:48;;;;;;;7.50;5.72;;;11.00;94.50;;;;;;5093415;28;20336;-42
2024/03/13 06:43:14;;;;;;;7.53;5.68;;;11.00;94.60;;;;;;5092838;28;20024;-34
2024/03/13 06:45:45;;;;;;;7.70;5.55;;;11.00;94.60;;;;;;5093310;28;20480;-36
2024/03/13 06:48:12;;;;;;;7.88;5.90;;;11.00;94.60;;;;;;5093239;28;20397;-36
2024/03/13 06:50:38;;;;;;;9.32;5.60;;;11.00;94.60;;;;;;5092794;28;20032;-38
2024/03/13 06:53:04;;;;;;;10.13;5.63;;;11.10;94.70;;;;;;5092702;28;20031;-36
2024/03/13 06:55:30;;;;;;;7.57;5.50;;;11.10;94.70;;;;;;5093020;28;20507;-36
2024/03/13 06:57:56;;;;;;;6.90;5.05;;;11.00;94.70;;;;;;5093108;28;20036;-37
2024/03/13 07:00:21;;;;;;;8.52;5.53;;;11.10;94.70;;;;;;5092955;28;20027;-36
2024/03/13 07:02:48;;;;;;;9.45;6.18;;;11.10;94.80;;;;;;5091906;28;20102;-37
2024/03/13 07:05:17;;;;;;;6.68;4.97;;;11.10;94.80;;;;;;5092733;28;20027;-36
2024/03/13 07:07:44;;;;;;;6.68;4.75;;;11.10;94.80;;;;;;5091616;28;20035;-37
2024/03/13 07:10:10;;;;;;;6.68;4.68;;;11.10;94.80;;;;;;5092852;28;20028;-37
2024/03/13 07:12:37;;;;;;;6.30;4.70;;;11.10;94.80;;;;;;5092868;28;20473;-37
2024/03/13 07:15:08;;;;;;;8.35;5.07;;;11.10;94.90;;;;;;5092385;28;20031;-37
2024/03/13 07:17:33;;;;;;;7.70;5.05;;;11.10;94.90;;;;;;5093102;28;20048;-37
2024/03/13 07:19:59;;;;;;;8.30;6.03;;;11.10;94.90;;;;;;5092501;28;20082;-36
2024/03/13 07:22:25;;;;;;;10.75;6.20;;;11.10;94.90;;;;;;5092288;28;20024;-38
2024/03/13 07:24:50;;;;;;;7.47;4.95;;;11.10;94.90;;;;;;5092401;28;20452;-39
2024/03/13 07:27:16;;;;;;;10.60;6.32;;;11.10;94.90;;;;;;5092200;28;20405;-35
2024/03/13 07:29:42;;;;;;;7.97;6.10;;;11.10;94.90;;;;;;5092505;28;20076;-46
2024/03/13 07:32:07;;;;;;;11.88;6.78;;;11.20;95.00;;;;;;5092421;28;20480;-36
2024/03/13 07:34:33;;;;;;;9.35;6.07;;;11.20;94.90;;;;;;5091833;28;20513;-37
2024/03/13 07:36:59;;;;;;;10.35;6.97;;;11.20;94.90;;;;;;5092204;28;20110;-36
2024/03/13 07:39:28;;;;;;;11.73;7.50;;;11.20;94.90;;;;;;5091872;28;20032;-35
2024/03/13 07:41:54;;;;;;;11.55;7.22;;;11.20;94.90;;;;;;5091866;28;20110;-37
2024/03/13 07:44:20;;;;;;;10.63;7.65;;;11.20;95.00;;;;;;5092170;28;20103;-36
2024/03/13 07:46:45;;;;;;;10.23;7.28;;;11.20;95.00;;;;;;5092263;28;20304;-37
2024/03/13 07:49:13;;;;;;;13.88;7.90;;;11.30;95.00;;;;;;5091877;28;20032;-37
2024/03/13 07:51:39;;;;;;;11.57;7.95;;;11.30;95.00;;;;;;5090375;28;20028;-35
2024/03/13 07:54:06;;;;;;;10.20;7.40;;;11.20;95.10;;;;;;5091886;28;20024;-38
2024/03/13 07:56:32;;;;;;;11.00;7.97;;;11.30;95.10;;;;;;5090449;28;20058;-40
2024/03/13 07:58:57;;;;;;;13.15;7.93;;;11.30;95.10;;;;;;5091602;28;20396;-36
2024/03/13 08:01:24;;;;;;;11.85;7.80;;;11.30;95.10;;;;;;5091809;28;20052;-37
2024/03/13 08:03:50;;;;;;;11.98;8.32;;;11.30;95.10;;;;;;5091854;28;20024;-36
2024/03/13 08:06:16;;;;;;;14.57;9.32;;;11.30;95.10;;;;;;5091697;28;20028;-36
2024/03/13 08:08:41;;;;;;;11.95;8.38;;;11.40;95.10;;;;;;5091591;28;20035;-36
2024/03/13 08:11:08;;;;;;;12.02;7.85;;;11.40;95.10;;;;;;5091815;28;20080;-35
2024/03/13 08:13:34;;;;;;;11.88;8.65;;;11.40;95.10;;;;;;5091536;28;20032;-36
2024/03/13 08:16:00;;;;;;;13.00;8.27;;;11.40;95.10;;;;;;5091692;28;20028;-36
2024/03/13 08:18:27;;;;;;;12.52;9.05;;;11.40;95.10;;;;;;5090281;28;20020;-37
2024/03/13 08:20:54;;;;;;;13.40;8.80;;;11.40;95.20;;;;;;5091812;28;20028;-36
2024/03/13 08:23:20;;;;;;;12.80;9.27;;;11.40;95.20;;;;;;5091400;28;20024;-36
2024/03/13 08:25:45;;;;;;;12.80;8.85;;;11.40;95.20;;;;;;5091787;28;20051;-37
2024/03/13 08:28:11;;;;;;;11.88;8.38;;;11.50;95.20;;;;;;5091490;28;20040;-37
2024/03/13 08:30:39;;;;;;;16.02;10.07;;;11.50;95.20;;;;;;5091919;28;20039;-35
2024/03/13 08:33:05;;;;;;;13.25;8.93;;;11.50;95.20;;;;;;5091233;28;20114;-38
2024/03/13 08:35:32;;;;;;;12.70;9.15;;;11.50;95.20;;;;;;5091186;28;20123;-36
2024/03/13 08:37:59;;;;;;;11.35;8.05;;;11.50;95.20;;;;;;5091486;28;20122;-36
2024/03/13 08:40:28;;;;;;;13.45;9.20;;;11.50;95.20;;;;;;5091586;28;20073;-36
2024/03/13 08:42:58;;;;;;;12.60;8.80;;;11.60;95.20;;;;;;5091154;28;20436;-35
2024/03/13 08:45:27;;;;;;;13.45;8.80;;;11.60;95.20;;;;;;5091544;28;20494;-38
2024/03/13 08:47:53;;;;;;;11.70;9.05;;;11.60;95.20;;;;;;5091116;28;20028;-36
2024/03/13 08:50:19;;;;;;;11.18;8.45;;;11.60;95.20;;;;;;5091358;28;20024;-36
2024/03/13 08:52:45;;;;;;;14.15;8.85;;;11.60;95.20;;;;;;5091046;28;20028;-39
2024/03/13 08:55:10;;;;;;;13.52;8.93;;;11.60;95.20;;;;;;5091204;28;20024;-36
2024/03/13 08:57:36;;;;;;;11.43;8.18;;;11.60;95.20;;;;;;5091293;28;20028;-39
2024/03/13 09:00:05;;;;;;;13.35;8.43;;;11.60;95.30;;;;;;5090938;28;20028;-36
2024/03/13 09:02:31;;;;;;;12.80;8.80;;;11.60;95.20;;;;;;5091099;28;20020;-36
2024/03/13 09:04:57;;;;;;;11.55;8.05;;;11.60;95.30;;;;;;5091450;28;20013;-36
2024/03/13 09:07:23;;;;;;;11.75;8.00;;;11.60;95.30;;;;;;5091265;28;20392;-37
2024/03/13 09:09:48;;;;;;;12.25;7.22;;;11.60;95.30;;;;;;5091334;28;20362;-34
2024/03/13 09:12:17;;;;;;;13.35;7.95;;;11.70;95.30;;;;;;5090975;28;20039;-37
2024/03/13 09:14:42;;;;;;;9.65;6.88;;;11.70;95.30;;;;;;5091054;28;20043;-36
2024/03/13 09:17:12;;;;;;;12.98;7.32;;;11.70;95.30;;;;;;5090974;28;20032;-36
2024/03/13 09:19:38;;;;;;;10.35;7.18;;;11.70;95.30;;;;;;5091186;28;20039;-36
2024/03/13 09:22:11;;;;;;;9.85;7.18;;;11.70;95.30;;;;;;5089587;28;20496;-37
2024/03/13 09:24:39;;;;;;;9.70;6.38;;;11.70;95.30;;;;;;5091536;28;20024;-36
2024/03/13 09:27:05;;;;;;;9.57;6.15;;;11.80;95.30;;;;;;5095011;28;20082;-38
2024/03/13 09:29:31;;;;;;;10.50;6.65;;;11.80;95.30;;;;;;5094652;28;20119;-37
2024/03/13 09:31:57;;;;;;;9.73;5.72;;;11.80;95.20;;;;;;5094940;28;20103;-38
2024/03/13 09:34:23;;;;;;;9.13;5.80;;;11.90;95.20;;;;;;5094267;28;20042;-36
2024/03/13 09:36:49;;;;;;;9.75;5.75;;;11.90;95.20;;;;;;5093736;28;20446;-40
2024/03/13 09:39:15;;;;;;;8.10;5.65;;;11.90;95.20;;;;;;5094196;28;20081;-38
2024/03/13 09:41:41;;;;;;;7.22;5.40;;;12.00;95.10;;;;;;5094579;28;20032;-37
2024/03/13 09:44:09;;;;;;;7.32;4.97;;;12.00;95.10;;;;;;5094105;28;20468;-37
2024/03/13 09:46:37;;;;;;;7.78;4.97;;;12.10;95.10;;;;;;5093405;28;20392;-37
2024/03/13 09:49:04;;;;;;;6.68;4.85;;;12.10;95.00;;;;;;5094473;28;20027;-39
2024/03/13 09:51:31;;;;;;;8.18;4.65;;;12.10;95.00;;;;;;5094171;28;20394;-37
2024/03/13 09:53:59;;;;;;;6.88;4.72;;;12.20;95.00;;;;;;5094158;28;20023;-38
2024/03/13 09:56:25;;;;;;;6.07;4.57;;;12.20;95.00;;;;;;5094465;28;20464;-38
2024/03/13 09:58:52;;;;;;;7.45;4.80;;;12.20;94.90;;;;;;5094210;28;20074;-37
2024/03/13 10:01:26;;;;;;;7.20;4.68;;;12.30;94.90;;;;;;5094134;28;20020;-37
2024/03/13 10:03:59;;;;;;;7.78;5.30;;;12.20;94.80;;;;;;5093893;28;20031;-36
2024/03/13 10:06:26;;;;;;;;;;;12.20;94.80;;;;;;5094563;28;20046;-38
2024/03/13 10:08:55;;;;;;;10.13;6.00;;;12.20;94.90;;;;;;5094064;28;19931;-37
2024/03/13 10:11:26;;;;;;;14.07;7.57;;;12.20;94.90;;;;;;5093798;28;20025;-36
2024/03/13 10:13:54;;;;;;;12.23;7.43;;;12.10;94.80;;;;;;5092144;28;20028;-36
2024/03/13 10:16:24;;;;;;;13.65;7.82;;;12.10;94.90;;;;;;5092552;28;20036;-35
2024/03/13 10:18:52;;;;;;;15.27;8.80;;;12.10;94.90;;;;;;5092342;28;20085;-36
2024/03/13 10:21:25;;;;;;;13.55;8.85;;;12.10;94.90;;;;;;5093452;28;20427;-34
2024/03/13 10:23:54;;;;;;;14.18;8.63;;;12.10;94.90;;;;;;5093392;28;20031;-36
2024/03/13 10:26:21;;;;;;;15.90;9.02;;;12.10;94.80;;;;;;5093586;28;20020;-37
2024/03/13 10:28:50;;;;;;;17.45;10.27;;;12.20;94.80;;;;;;5093795;28;20024;-37
2024/03/13 10:31:20;;;;;;;19.88;10.88;;;12.10;94.80;;;;;;5093453;28;20032;-38
2024/03/13 10:33:46;;;;;;;21.05;12.15;;;12.20;94.80;;;;;;5093313;28;20051;-36
2024/03/13 10:36:13;;;;;;;21.58;11.10;;;12.20;94.80;;;;;;5091189;28;20055;-38
2024/03/13 10:38:41;;;;;;;19.80;10.80;;;12.10;94.80;;;;;;5092858;28;20520;-35
2024/03/13 10:41:08;;;;;;;22.15;11.88;;;12.10;94.80;;;;;;5093473;28;20494;-37
2024/03/13 10:43:33;;;;;;;21.17;12.48;;;12.10;94.80;;;;;;5093237;28;20021;-34
2024/03/13 10:45:59;;;;;;;23.95;12.68;;;12.20;94.80;;;;;;5091984;28;20031;-35
2024/03/13 10:48:25;;;;;;;22.25;12.18;;;12.20;94.80;;;;;;5093440;28;20019;-36
2024/03/13 10:50:52;;;;;;;23.67;12.43;;;12.20;94.70;;;;;;5093297;28;20555;-38
2024/03/13 10:53:21;;;;;;;24.67;13.88;;;12.20;94.70;;;;;;5093097;28;20502;-36
2024/03/13 10:55:47;;;;;;;22.05;11.85;;;12.20;94.70;;;;;;5092798;28;20039;-36
2024/03/13 10:58:22;;;;;;;21.08;12.80;;;12.20;94.70;;;;;;5092651;28;20034;-35
2024/03/13 11:00:51;;;;;;;23.98;13.68;;;12.20;94.70;;;;;;5092751;28;20095;-36
2024/03/13 11:03:17;;;;;;;21.55;12.20;;;12.20;94.70;;;;;;5092675;28;20052;-37
2024/03/13 11:05:43;;;;;;;22.85;12.63;;;12.30;94.70;;;;;;5091211;28;20027;-36
2024/03/13 11:08:09;;;;;;;26.23;14.05;;;12.30;94.70;;;;;;5092734;28;20024;-35
2024/03/13 11:10:35;;;;;;;22.98;13.90;;;12.40;94.60;;;;;;5092776;28;20046;-33
2024/03/13 11:13:05;;;;;;;21.58;12.63;;;12.40;94.50;;;;;;5092396;28;20020;-40
2024/03/13 11:15:32;;;;;;;21.73;12.43;;;12.40;94.40;;;;;;5091229;28;20032;-36
2024/03/13 11:18:01;;;;;;;18.67;12.27;;;12.40;94.40;;;;;;5092476;28;20189;-37
2024/03/13 11:20:42;;;;;;;18.63;11.80;;;12.50;94.40;;;;;;5092542;28;20379;-37
2024/03/13 11:23:14;;;;;;;20.98;12.95;;;12.60;94.30;;;;;;5092482;28;20048;-38
2024/03/13 11:25:41;;;;;;;18.67;11.30;;;12.60;94.20;;;;;;5092316;28;20032;-38
2024/03/13 11:28:17;;;;;;;18.80;11.73;;;12.60;94.20;;;;;;5092451;28;20077;-41
2024/03/13 11:30:45;;;;;;;19.08;12.40;;;12.70;94.20;;;;;;5092454;28;20032;-37
2024/03/13 11:33:11;;;;;;;17.02;11.55;;;12.70;94.00;;;;;;5092575;28;20110;-47
2024/03/13 11:35:37;;;;;;;21.35;13.13;;;12.70;94.00;;;;;;5092083;28;20048;-39
2024/03/13 11:38:02;;;;;;;22.63;13.68;;;12.70;94.00;;;;;;5090951;28;20028;-36
2024/03/13 11:40:33;;;;;;;18.65;12.95;;;12.70;93.90;;;;;;5092317;28;20027;-37
2024/03/13 11:43:02;;;;;;;17.35;11.77;;;12.60;93.80;;;;;;5092244;28;20076;-37
2024/03/13 11:45:29;;;;;;;17.38;10.95;;;12.70;93.80;;;;;;5092007;28;20027;-37
2024/03/13 11:48:00;;;;;;;18.73;10.80;;;12.80;93.80;;;;;;5092074;28;20042;-37
2024/03/13 11:50:27;;;;;;;20.08;11.05;;;12.80;93.70;;;;;;5092101;28;20409;-38
2024/03/13 11:53:01;;;;;;;17.75;11.00;;;12.80;93.70;;;;;;5092132;28;20035;-36
2024/03/13 11:55:30;;;;;;;22.20;11.70;;;12.70;93.60;;;;;;5092317;28;20021;-38
2024/03/13 11:58:21;;;;;;;19.95;12.70;;;12.70;93.50;;;;;;5092066;28;20020;-37
2024/03/13 12:00:50;;;;;;;19.17;12.48;;;12.70;93.40;;;;;;5091767;28;20112;-36
2024/03/13 12:03:17;;;;;;;17.08;12.43;;;12.60;93.40;;;;;;5091859;28;20020;-38
2024/03/13 12:05:43;;;;;;;18.63;11.73;;;12.60;93.50;;;;;;5091967;28;20359;-36
2024/03/13 12:08:15;;;;;;;18.92;12.15;;;12.60;93.50;;;;;;5091989;28;20051;-37
2024/03/13 12:10:41;;;;;;;19.35;12.65;;;12.70;93.50;;;;;;5091601;28;20024;-37
2024/03/13 12:13:15;;;;;;;20.38;13.23;;;12.70;93.70;;;;;;5091412;28;20027;-37
2024/03/13 12:15:42;;;;;;;17.42;13.13;;;12.70;93.40;;;;;;5091489;28;20110;-35
2024/03/13 12:18:11;;;;;;;18.25;13.45;;;12.70;93.40;;;;;;5091638;28;20035;-38
2024/03/13 12:20:39;;;;;;;24.05;14.02;;;12.70;93.40;;;;;;5091393;28;20027;-37
2024/03/13 12:23:08;;;;;;;20.63;14.18;;;12.80;93.40;;;;;;5091696;28;20413;-38
2024/03/13 12:25:34;;;;;;;21.95;14.88;;;12.80;93.40;;;;;;5091755;28;20472;-37
2024/03/13 12:28:00;;;;;;;18.13;14.27;;;12.80;93.40;;;;;;5091768;28;20024;-36
2024/03/13 12:30:29;;;;;;;25.15;15.30;;;12.80;93.30;;;;;;5091860;28;20019;-41
2024/03/13 12:32:59;;;;;;;25.35;15.75;;;12.80;93.30;;;;;;5091691;28;20024;-38
2024/03/13 12:35:25;;;;;;;23.38;14.75;;;12.80;93.20;;;;;;5091241;28;20044;-36
2024/03/13 12:37:53;;;;;;;25.13;15.43;;;12.80;93.20;;;;;;5090013;28;20469;-37
2024/03/13 12:40:20;;;;;;;23.48;15.32;;;12.80;93.10;;;;;;5091590;28;20017;-39
2024/03/13 12:42:47;;;;;;;25.50;16.80;;;12.80;93.20;;;;;;5091142;28;20051;-37
2024/03/13 12:45:14;;;;;;;23.52;16.60;;;12.80;93.10;;;;;;5091439;28;20024;-39
2024/03/13 12:47:44;;;;;;;24.35;16.73;;;12.80;93.00;;;;;;5091166;28;20024;-35
2024/03/13 12:50:11;;;;;;;25.67;16.55;;;12.80;93.10;;;;;;5091601;28;20088;-37
2024/03/13 12:52:38;;;;;;;24.05;16.75;;;12.80;93.00;;;;;;5091373;28;20025;-38
2024/03/13 12:55:12;;;;;;;25.27;17.02;;;12.80;93.10;;;;;;5091613;28;20334;-37
2024/03/13 12:57:38;;;;;;;26.88;17.80;;;12.70;93.10;;;;;;5091268;28;20153;-37
2024/03/13 13:00:14;;;;;;;25.75;17.65;;;12.70;93.10;;;;;;5092464;28;20078;-37